Strona główna
METAR-TAF:

METAR-TAF

Lotnisko :

RAF Fairford

Fairford, Anglia

Szerokość geograficzna: 51-41N, Długość geograficzna: 001-47W, wysokość: 87 m

Aktualna obserwacja pogody

Raport powstał 24 minut temu, godzina 06:31 UTC
Wiatr 8 kt od południowo-południowy wschód
Temperatura 4°C
Wilgotność 87%
Ciśnienie 995 hPa
Widzialność 10 km lub więcej
Rozproszone chmury na wysokości 3200 ft
Przerywane chmury na wysokości 4300 ft
Przerywane chmury na wysokości 5000 ft
Zachmurzenie całkowite na wysokości 6500 ft

METAR: EGVA 120631Z AUTO 16008KT 9999 SCT032 BKN043 BKN050 OVC065 04/02 A2939 RMK AO2 SLP959 $

czas: 06:55 (06:55 UTC)


TAF: brakujący

Obserwacja i prognoza pogody dla ponad 4000 lotnisk (raport METAR i TAF).

Dostępne stacje oznaczono żółtymi i czerwonymi punktami na mapie.

Najedź kursorem aby zobaczyć nazwę stacji.

Kliknij aby zobaczyć obserwacje i prognozy pogody.

Aby zmienić mapę: kliknij na zielony przycisk z czarnym krzyżykiem, aby powiększyć; na zielony przycisk z myślnikiem, aby pomniejszyć; na zielone strzałki, aby przejść do map sąsiednich.


METAR-TAF: